sensor_id;sensor_type;location;lat;lon;timestamp;P1;durP1;ratioP1;P2;durP2;ratioP2
974;SDS011;6115;49.296;10.602;2024-01-06T00:03:14;88.00;;;20.13;;
974;SDS011;6115;49.296;10.602;2024-01-06T00:08:14;73.30;;;21.50;;
974;SDS011;6115;49.296;10.602;2024-01-06T00:13:15;73.93;;;21.40;;
974;SDS011;6115;49.296;10.602;2024-01-06T00:18:15;75.57;;;22.17;;
974;SDS011;6115;49.296;10.602;2024-01-06T00:23:16;75.93;;;22.70;;
974;SDS011;6115;49.296;10.602;2024-01-06T00:28:16;79.87;;;22.90;;
974;SDS011;6115;49.296;10.602;2024-01-06T00:33:17;73.50;;;21.40;;
974;SDS011;6115;49.296;10.602;2024-01-06T00:38:17;74.60;;;21.33;;
974;SDS011;6115;49.296;10.602;2024-01-06T00:43:20;77.30;;;23.10;;
974;SDS011;6115;49.296;10.602;2024-01-06T00:48:20;74.10;;;20.83;;
974;SDS011;6115;49.296;10.602;2024-01-06T00:53:21;73.00;;;21.57;;
974;SDS011;6115;49.296;10.602;2024-01-06T00:58:22;74.43;;;22.30;;
974;SDS011;6115;49.296;10.602;2024-01-06T01:03:22;74.57;;;20.77;;
974;SDS011;6115;49.296;10.602;2024-01-06T01:08:23;79.10;;;21.67;;
974;SDS011;6115;49.296;10.602;2024-01-06T01:13:23;72.17;;;19.80;;
974;SDS011;6115;49.296;10.602;2024-01-06T01:18:24;74.63;;;21.00;;
974;SDS011;6115;49.296;10.602;2024-01-06T01:23:24;81.00;;;20.83;;
974;SDS011;6115;49.296;10.602;2024-01-06T01:28:25;74.57;;;20.57;;
974;SDS011;6115;49.296;10.602;2024-01-06T01:33:25;72.37;;;19.50;;
974;SDS011;6115;49.296;10.602;2024-01-06T01:38:26;71.87;;;19.67;;
974;SDS011;6115;49.296;10.602;2024-01-06T01:43:26;72.47;;;20.00;;
974;SDS011;6115;49.296;10.602;2024-01-06T01:48:28;74.40;;;21.87;;
974;SDS011;6115;49.296;10.602;2024-01-06T01:53:29;74.60;;;20.97;;
974;SDS011;6115;49.296;10.602;2024-01-06T01:58:31;74.47;;;21.63;;
974;SDS011;6115;49.296;10.602;2024-01-06T02:03:32;73.57;;;20.60;;
974;SDS011;6115;49.296;10.602;2024-01-06T02:08:33;72.97;;;20.70;;
974;SDS011;6115;49.296;10.602;2024-01-06T02:13:34;72.67;;;21.17;;
974;SDS011;6115;49.296;10.602;2024-01-06T02:18:35;73.00;;;20.50;;
974;SDS011;6115;49.296;10.602;2024-01-06T02:23:36;75.90;;;22.10;;
974;SDS011;6115;49.296;10.602;2024-01-06T02:28:37;73.43;;;20.43;;
974;SDS011;6115;49.296;10.602;2024-01-06T02:33:37;73.90;;;21.53;;
974;SDS011;6115;49.296;10.602;2024-01-06T02:38:38;73.00;;;20.23;;
974;SDS011;6115;49.296;10.602;2024-01-06T02:43:39;74.27;;;19.93;;
974;SDS011;6115;49.296;10.602;2024-01-06T02:48:39;72.60;;;19.70;;
974;SDS011;6115;49.296;10.602;2024-01-06T02:53:40;73.00;;;21.27;;
974;SDS011;6115;49.296;10.602;2024-01-06T02:58:40;71.97;;;19.80;;
974;SDS011;6115;49.296;10.602;2024-01-06T03:03:41;72.77;;;20.20;;
974;SDS011;6115;49.296;10.602;2024-01-06T03:08:41;72.57;;;19.83;;
974;SDS011;6115;49.296;10.602;2024-01-06T03:13:42;72.27;;;19.80;;
974;SDS011;6115;49.296;10.602;2024-01-06T03:18:42;73.63;;;20.90;;
974;SDS011;6115;49.296;10.602;2024-01-06T03:23:43;73.67;;;20.57;;
974;SDS011;6115;49.296;10.602;2024-01-06T03:28:43;72.60;;;20.07;;
974;SDS011;6115;49.296;10.602;2024-01-06T03:33:44;72.50;;;19.77;;
974;SDS011;6115;49.296;10.602;2024-01-06T03:38:44;74.47;;;21.13;;
974;SDS011;6115;49.296;10.602;2024-01-06T03:43:45;72.77;;;19.93;;
974;SDS011;6115;49.296;10.602;2024-01-06T03:48:46;77.13;;;23.07;;
974;SDS011;6115;49.296;10.602;2024-01-06T03:53:46;74.70;;;22.10;;
974;SDS011;6115;49.296;10.602;2024-01-06T03:58:47;75.20;;;22.80;;
974;SDS011;6115;49.296;10.602;2024-01-06T04:03:48;72.30;;;20.13;;
974;SDS011;6115;49.296;10.602;2024-01-06T04:08:48;72.90;;;20.60;;
974;SDS011;6115;49.296;10.602;2024-01-06T04:13:50;75.77;;;20.53;;
974;SDS011;6115;49.296;10.602;2024-01-06T04:18:50;78.17;;;23.00;;
974;SDS011;6115;49.296;10.602;2024-01-06T04:23:51;71.97;;;19.23;;
974;SDS011;6115;49.296;10.602;2024-01-06T04:28:51;73.27;;;20.20;;
974;SDS011;6115;49.296;10.602;2024-01-06T04:33:52;83.40;;;23.53;;
974;SDS011;6115;49.296;10.602;2024-01-06T04:38:52;73.20;;;21.43;;
974;SDS011;6115;49.296;10.602;2024-01-06T04:43:53;75.33;;;22.53;;
974;SDS011;6115;49.296;10.602;2024-01-06T04:48:54;74.70;;;21.90;;
974;SDS011;6115;49.296;10.602;2024-01-06T04:53:54;75.73;;;24.20;;
974;SDS011;6115;49.296;10.602;2024-01-06T04:58:55;74.43;;;23.10;;
974;SDS011;6115;49.296;10.602;2024-01-06T05:03:57;75.37;;;23.00;;
974;SDS011;6115;49.296;10.602;2024-01-06T05:08:58;75.90;;;23.33;;
974;SDS011;6115;49.296;10.602;2024-01-06T05:13:59;74.47;;;23.13;;
974;SDS011;6115;49.296;10.602;2024-01-06T05:19:00;78.90;;;24.70;;
974;SDS011;6115;49.296;10.602;2024-01-06T05:24:00;73.67;;;21.90;;
974;SDS011;6115;49.296;10.602;2024-01-06T05:29:02;74.80;;;23.00;;
974;SDS011;6115;49.296;10.602;2024-01-06T05:34:03;75.60;;;24.53;;
974;SDS011;6115;49.296;10.602;2024-01-06T05:39:04;75.60;;;24.67;;
974;SDS011;6115;49.296;10.602;2024-01-06T05:44:05;75.57;;;24.67;;
974;SDS011;6115;49.296;10.602;2024-01-06T05:49:06;75.17;;;24.40;;
974;SDS011;6115;49.296;10.602;2024-01-06T05:54:06;77.00;;;25.10;;
974;SDS011;6115;49.296;10.602;2024-01-06T05:59:07;75.80;;;23.03;;
974;SDS011;6115;49.296;10.602;2024-01-06T06:04:07;75.50;;;24.57;;
974;SDS011;6115;49.296;10.602;2024-01-06T06:09:09;77.47;;;26.03;;
974;SDS011;6115;49.296;10.602;2024-01-06T06:14:10;75.90;;;25.20;;
974;SDS011;6115;49.296;10.602;2024-01-06T06:19:10;75.27;;;24.90;;
974;SDS011;6115;49.296;10.602;2024-01-06T06:24:11;76.60;;;25.47;;
974;SDS011;6115;49.296;10.602;2024-01-06T06:29:11;75.10;;;25.50;;
974;SDS011;6115;49.296;10.602;2024-01-06T06:34:12;75.50;;;25.80;;
974;SDS011;6115;49.296;10.602;2024-01-06T06:39:13;80.30;;;26.07;;
974;SDS011;6115;49.296;10.602;2024-01-06T06:44:13;75.87;;;25.77;;
974;SDS011;6115;49.296;10.602;2024-01-06T06:49:14;76.57;;;26.10;;
974;SDS011;6115;49.296;10.602;2024-01-06T06:54:15;75.67;;;25.13;;
974;SDS011;6115;49.296;10.602;2024-01-06T06:59:16;77.20;;;25.50;;
974;SDS011;6115;49.296;10.602;2024-01-06T07:04:16;75.10;;;24.90;;
974;SDS011;6115;49.296;10.602;2024-01-06T07:09:17;74.87;;;24.27;;
974;SDS011;6115;49.296;10.602;2024-01-06T07:14:17;76.77;;;24.43;;
974;SDS011;6115;49.296;10.602;2024-01-06T07:19:18;75.50;;;25.40;;
974;SDS011;6115;49.296;10.602;2024-01-06T07:24:19;75.30;;;24.60;;
974;SDS011;6115;49.296;10.602;2024-01-06T07:29:20;74.87;;;24.20;;
974;SDS011;6115;49.296;10.602;2024-01-06T07:34:20;75.40;;;23.90;;
974;SDS011;6115;49.296;10.602;2024-01-06T07:39:21;75.30;;;24.00;;
974;SDS011;6115;49.296;10.602;2024-01-06T07:44:21;74.27;;;22.90;;
974;SDS011;6115;49.296;10.602;2024-01-06T07:49:24;74.40;;;22.43;;
974;SDS011;6115;49.296;10.602;2024-01-06T07:54:25;75.27;;;24.40;;
974;SDS011;6115;49.296;10.602;2024-01-06T07:59:25;73.00;;;21.57;;
974;SDS011;6115;49.296;10.602;2024-01-06T08:04:26;72.87;;;21.10;;
974;SDS011;6115;49.296;10.602;2024-01-06T08:09:26;74.13;;;21.97;;
974;SDS011;6115;49.296;10.602;2024-01-06T08:14:27;75.03;;;21.20;;
974;SDS011;6115;49.296;10.602;2024-01-06T08:19:27;76.30;;;21.67;;
974;SDS011;6115;49.296;10.602;2024-01-06T08:24:30;75.40;;;22.40;;
974;SDS011;6115;49.296;10.602;2024-01-06T08:29:31;74.17;;;22.00;;
974;SDS011;6115;49.296;10.602;2024-01-06T08:34:31;75.00;;;23.07;;
974;SDS011;6115;49.296;10.602;2024-01-06T08:39:32;73.83;;;20.77;;
974;SDS011;6115;49.296;10.602;2024-01-06T08:44:33;75.13;;;21.53;;
974;SDS011;6115;49.296;10.602;2024-01-06T08:49:34;75.87;;;20.70;;
974;SDS011;6115;49.296;10.602;2024-01-06T08:54:34;72.27;;;19.57;;
974;SDS011;6115;49.296;10.602;2024-01-06T08:59:35;73.10;;;19.97;;
974;SDS011;6115;49.296;10.602;2024-01-06T09:04:36;73.60;;;19.87;;
974;SDS011;6115;49.296;10.602;2024-01-06T09:09:36;72.67;;;19.47;;
974;SDS011;6115;49.296;10.602;2024-01-06T09:14:37;71.00;;;17.90;;
974;SDS011;6115;49.296;10.602;2024-01-06T09:19:37;72.10;;;19.57;;
974;SDS011;6115;49.296;10.602;2024-01-06T09:24:38;73.90;;;19.20;;
974;SDS011;6115;49.296;10.602;2024-01-06T09:29:38;73.83;;;20.43;;
974;SDS011;6115;49.296;10.602;2024-01-06T09:34:39;70.60;;;17.03;;
974;SDS011;6115;49.296;10.602;2024-01-06T09:39:40;71.87;;;18.33;;
974;SDS011;6115;49.296;10.602;2024-01-06T09:44:40;73.10;;;20.57;;
974;SDS011;6115;49.296;10.602;2024-01-06T09:49:41;74.80;;;19.63;;
974;SDS011;6115;49.296;10.602;2024-01-06T09:54:51;71.90;;;19.40;;
974;SDS011;6115;49.296;10.602;2024-01-06T09:59:52;74.60;;;20.73;;
974;SDS011;6115;49.296;10.602;2024-01-06T10:04:53;71.53;;;18.73;;
974;SDS011;6115;49.296;10.602;2024-01-06T10:09:54;71.50;;;16.57;;
974;SDS011;6115;49.296;10.602;2024-01-06T10:14:55;79.50;;;22.30;;
974;SDS011;6115;49.296;10.602;2024-01-06T10:19:56;70.10;;;16.57;;
974;SDS011;6115;49.296;10.602;2024-01-06T10:24:57;72.63;;;19.37;;
974;SDS011;6115;49.296;10.602;2024-01-06T10:29:57;72.67;;;18.90;;
974;SDS011;6115;49.296;10.602;2024-01-06T10:34:58;70.57;;;16.83;;
974;SDS011;6115;49.296;10.602;2024-01-06T10:40:16;70.80;;;17.00;;
974;SDS011;6115;49.296;10.602;2024-01-06T10:45:17;72.37;;;17.07;;
974;SDS011;6115;49.296;10.602;2024-01-06T10:50:18;75.23;;;19.37;;
974;SDS011;6115;49.296;10.602;2024-01-06T10:55:19;72.40;;;17.10;;
974;SDS011;6115;49.296;10.602;2024-01-06T11:00:20;73.20;;;16.27;;
974;SDS011;6115;49.296;10.602;2024-01-06T11:05:21;77.73;;;17.13;;
974;SDS011;6115;49.296;10.602;2024-01-06T11:10:22;74.30;;;20.17;;
974;SDS011;6115;49.296;10.602;2024-01-06T11:15:42;70.77;;;16.40;;
974;SDS011;6115;49.296;10.602;2024-01-06T11:26:22;70.07;;;16.43;;
974;SDS011;6115;49.296;10.602;2024-01-06T11:31:23;70.37;;;16.53;;
974;SDS011;6115;49.296;10.602;2024-01-06T11:36:23;72.47;;;17.30;;
974;SDS011;6115;49.296;10.602;2024-01-06T11:46:47;75.00;;;19.93;;
974;SDS011;6115;49.296;10.602;2024-01-06T11:51:51;71.20;;;17.43;;
974;SDS011;6115;49.296;10.602;2024-01-06T11:56:53;71.30;;;17.40;;
974;SDS011;6115;49.296;10.602;2024-01-06T12:01:54;70.27;;;16.33;;
974;SDS011;6115;49.296;10.602;2024-01-06T12:07:04;71.20;;;15.90;;
974;SDS011;6115;49.296;10.602;2024-01-06T12:12:06;71.17;;;16.67;;
974;SDS011;6115;49.296;10.602;2024-01-06T12:17:07;72.20;;;18.13;;
974;SDS011;6115;49.296;10.602;2024-01-06T12:22:09;70.50;;;16.43;;
974;SDS011;6115;49.296;10.602;2024-01-06T12:27:13;76.40;;;16.63;;
974;SDS011;6115;49.296;10.602;2024-01-06T12:32:13;71.20;;;16.97;;
974;SDS011;6115;49.296;10.602;2024-01-06T12:37:14;72.10;;;17.67;;
974;SDS011;6115;49.296;10.602;2024-01-06T12:42:15;70.30;;;15.70;;
974;SDS011;6115;49.296;10.602;2024-01-06T12:47:16;70.30;;;16.07;;
974;SDS011;6115;49.296;10.602;2024-01-06T12:52:17;72.57;;;17.63;;
974;SDS011;6115;49.296;10.602;2024-01-06T12:57:18;71.17;;;16.43;;
974;SDS011;6115;49.296;10.602;2024-01-06T13:02:18;71.27;;;16.83;;
974;SDS011;6115;49.296;10.602;2024-01-06T13:07:21;71.77;;;16.37;;
974;SDS011;6115;49.296;10.602;2024-01-06T13:12:22;72.43;;;17.43;;
974;SDS011;6115;49.296;10.602;2024-01-06T13:17:23;72.87;;;17.93;;
974;SDS011;6115;49.296;10.602;2024-01-06T13:22:24;73.27;;;17.03;;
974;SDS011;6115;49.296;10.602;2024-01-06T13:27:26;73.60;;;17.23;;
974;SDS011;6115;49.296;10.602;2024-01-06T13:32:29;72.07;;;16.37;;
974;SDS011;6115;49.296;10.602;2024-01-06T13:37:31;71.60;;;16.73;;
974;SDS011;6115;49.296;10.602;2024-01-06T13:42:31;75.33;;;17.60;;
974;SDS011;6115;49.296;10.602;2024-01-06T13:47:32;71.93;;;17.00;;
974;SDS011;6115;49.296;10.602;2024-01-06T13:52:33;68.67;;;13.43;;
974;SDS011;6115;49.296;10.602;2024-01-06T13:57:34;78.40;;;18.30;;
974;SDS011;6115;49.296;10.602;2024-01-06T14:02:34;72.70;;;17.73;;
974;SDS011;6115;49.296;10.602;2024-01-06T14:07:35;74.20;;;18.33;;
974;SDS011;6115;49.296;10.602;2024-01-06T14:12:38;71.67;;;15.67;;
974;SDS011;6115;49.296;10.602;2024-01-06T14:17:40;69.37;;;14.63;;
974;SDS011;6115;49.296;10.602;2024-01-06T14:22:41;72.03;;;16.90;;
974;SDS011;6115;49.296;10.602;2024-01-06T14:27:41;72.03;;;15.13;;
974;SDS011;6115;49.296;10.602;2024-01-06T14:32:42;70.73;;;13.30;;
974;SDS011;6115;49.296;10.602;2024-01-06T14:37:42;71.53;;;13.40;;
974;SDS011;6115;49.296;10.602;2024-01-06T14:42:44;70.10;;;13.07;;
974;SDS011;6115;49.296;10.602;2024-01-06T14:47:45;71.43;;;13.03;;
974;SDS011;6115;49.296;10.602;2024-01-06T14:52:46;69.53;;;12.67;;
974;SDS011;6115;49.296;10.602;2024-01-06T14:57:46;70.03;;;13.07;;
974;SDS011;6115;49.296;10.602;2024-01-06T15:02:47;70.63;;;11.93;;
974;SDS011;6115;49.296;10.602;2024-01-06T15:07:47;68.50;;;11.33;;
974;SDS011;6115;49.296;10.602;2024-01-06T15:12:48;69.57;;;11.90;;
974;SDS011;6115;49.296;10.602;2024-01-06T15:17:48;67.20;;;10.60;;
974;SDS011;6115;49.296;10.602;2024-01-06T15:22:49;69.00;;;11.50;;
974;SDS011;6115;49.296;10.602;2024-01-06T15:27:49;68.80;;;11.27;;
974;SDS011;6115;49.296;10.602;2024-01-06T15:32:50;68.97;;;11.70;;
974;SDS011;6115;49.296;10.602;2024-01-06T15:37:51;73.23;;;13.53;;
974;SDS011;6115;49.296;10.602;2024-01-06T15:42:52;69.70;;;11.60;;
974;SDS011;6115;49.296;10.602;2024-01-06T15:47:52;74.00;;;12.87;;
974;SDS011;6115;49.296;10.602;2024-01-06T15:52:53;80.00;;;14.90;;
974;SDS011;6115;49.296;10.602;2024-01-06T15:57:53;75.27;;;14.57;;
974;SDS011;6115;49.296;10.602;2024-01-06T16:02:54;69.63;;;12.87;;
974;SDS011;6115;49.296;10.602;2024-01-06T16:07:55;70.97;;;14.63;;
974;SDS011;6115;49.296;10.602;2024-01-06T16:12:56;70.73;;;13.90;;
974;SDS011;6115;49.296;10.602;2024-01-06T16:17:59;73.27;;;14.60;;
974;SDS011;6115;49.296;10.602;2024-01-06T16:23:00;69.63;;;13.13;;
974;SDS011;6115;49.296;10.602;2024-01-06T16:28:00;75.30;;;14.10;;
974;SDS011;6115;49.296;10.602;2024-01-06T16:33:01;72.47;;;13.87;;
974;SDS011;6115;49.296;10.602;2024-01-06T16:38:02;74.50;;;14.77;;
974;SDS011;6115;49.296;10.602;2024-01-06T16:43:03;73.93;;;13.50;;
974;SDS011;6115;49.296;10.602;2024-01-06T16:48:04;71.23;;;13.03;;
974;SDS011;6115;49.296;10.602;2024-01-06T16:53:05;71.50;;;13.17;;
974;SDS011;6115;49.296;10.602;2024-01-06T16:58:05;73.70;;;13.80;;
974;SDS011;6115;49.296;10.602;2024-01-06T17:03:06;71.40;;;13.87;;
974;SDS011;6115;49.296;10.602;2024-01-06T17:08:07;73.20;;;14.37;;
974;SDS011;6115;49.296;10.602;2024-01-06T17:13:08;71.53;;;14.10;;
974;SDS011;6115;49.296;10.602;2024-01-06T17:18:09;71.40;;;13.90;;
974;SDS011;6115;49.296;10.602;2024-01-06T17:23:10;71.20;;;14.17;;
974;SDS011;6115;49.296;10.602;2024-01-06T17:28:11;70.30;;;13.23;;
974;SDS011;6115;49.296;10.602;2024-01-06T17:33:12;70.50;;;14.17;;
974;SDS011;6115;49.296;10.602;2024-01-06T17:38:13;71.67;;;13.87;;
974;SDS011;6115;49.296;10.602;2024-01-06T17:43:14;71.97;;;15.00;;
974;SDS011;6115;49.296;10.602;2024-01-06T17:48:15;70.70;;;14.50;;
974;SDS011;6115;49.296;10.602;2024-01-06T17:53:15;73.50;;;14.40;;
974;SDS011;6115;49.296;10.602;2024-01-06T17:58:16;72.20;;;16.20;;
974;SDS011;6115;49.296;10.602;2024-01-06T18:03:16;71.33;;;14.50;;
974;SDS011;6115;49.296;10.602;2024-01-06T18:08:17;71.17;;;14.30;;
974;SDS011;6115;49.296;10.602;2024-01-06T18:13:18;70.70;;;14.47;;
974;SDS011;6115;49.296;10.602;2024-01-06T18:18:18;72.70;;;17.33;;
974;SDS011;6115;49.296;10.602;2024-01-06T18:23:19;70.50;;;14.40;;
974;SDS011;6115;49.296;10.602;2024-01-06T18:28:20;69.37;;;12.90;;
974;SDS011;6115;49.296;10.602;2024-01-06T18:33:24;75.37;;;16.90;;
974;SDS011;6115;49.296;10.602;2024-01-06T18:38:24;70.20;;;14.80;;
974;SDS011;6115;49.296;10.602;2024-01-06T18:43:25;70.97;;;15.70;;
974;SDS011;6115;49.296;10.602;2024-01-06T18:48:26;73.47;;;16.90;;
974;SDS011;6115;49.296;10.602;2024-01-06T18:53:26;71.00;;;15.27;;
974;SDS011;6115;49.296;10.602;2024-01-06T18:58:28;70.97;;;14.97;;
974;SDS011;6115;49.296;10.602;2024-01-06T19:03:28;72.80;;;16.37;;
974;SDS011;6115;49.296;10.602;2024-01-06T19:08:29;82.83;;;17.57;;
974;SDS011;6115;49.296;10.602;2024-01-06T19:13:29;71.33;;;15.20;;
974;SDS011;6115;49.296;10.602;2024-01-06T19:18:30;73.90;;;16.07;;
974;SDS011;6115;49.296;10.602;2024-01-06T19:23:30;71.60;;;15.20;;
974;SDS011;6115;49.296;10.602;2024-01-06T19:28:31;74.33;;;15.90;;
974;SDS011;6115;49.296;10.602;2024-01-06T19:33:32;70.87;;;15.00;;
974;SDS011;6115;49.296;10.602;2024-01-06T19:38:32;73.47;;;16.30;;
974;SDS011;6115;49.296;10.602;2024-01-06T19:43:33;73.23;;;16.97;;
974;SDS011;6115;49.296;10.602;2024-01-06T19:48:34;71.37;;;16.00;;
974;SDS011;6115;49.296;10.602;2024-01-06T19:53:39;73.77;;;15.97;;
974;SDS011;6115;49.296;10.602;2024-01-06T19:58:40;70.77;;;15.53;;
974;SDS011;6115;49.296;10.602;2024-01-06T20:03:41;71.77;;;16.00;;
974;SDS011;6115;49.296;10.602;2024-01-06T20:08:42;73.30;;;17.00;;
974;SDS011;6115;49.296;10.602;2024-01-06T20:13:42;69.73;;;15.20;;
974;SDS011;6115;49.296;10.602;2024-01-06T20:18:43;72.87;;;17.43;;
974;SDS011;6115;49.296;10.602;2024-01-06T20:23:44;70.90;;;15.97;;
974;SDS011;6115;49.296;10.602;2024-01-06T20:28:47;72.97;;;15.37;;
974;SDS011;6115;49.296;10.602;2024-01-06T20:33:48;71.07;;;15.20;;
974;SDS011;6115;49.296;10.602;2024-01-06T20:38:48;70.67;;;15.93;;
974;SDS011;6115;49.296;10.602;2024-01-06T20:43:51;69.97;;;15.07;;
974;SDS011;6115;49.296;10.602;2024-01-06T20:48:52;71.37;;;15.50;;
974;SDS011;6115;49.296;10.602;2024-01-06T20:53:53;74.70;;;16.17;;
974;SDS011;6115;49.296;10.602;2024-01-06T20:58:54;70.67;;;15.63;;
974;SDS011;6115;49.296;10.602;2024-01-06T21:03:54;70.67;;;14.70;;
974;SDS011;6115;49.296;10.602;2024-01-06T21:08:55;70.97;;;15.27;;
974;SDS011;6115;49.296;10.602;2024-01-06T21:13:55;70.57;;;14.87;;
974;SDS011;6115;49.296;10.602;2024-01-06T21:18:56;69.37;;;15.37;;
974;SDS011;6115;49.296;10.602;2024-01-06T21:23:56;73.70;;;16.60;;
974;SDS011;6115;49.296;10.602;2024-01-06T21:28:57;71.60;;;16.83;;
974;SDS011;6115;49.296;10.602;2024-01-06T21:33:58;71.60;;;16.03;;
974;SDS011;6115;49.296;10.602;2024-01-06T21:38:58;72.30;;;15.90;;
974;SDS011;6115;49.296;10.602;2024-01-06T21:43:59;73.23;;;16.37;;
974;SDS011;6115;49.296;10.602;2024-01-06T21:48:59;70.53;;;15.33;;
974;SDS011;6115;49.296;10.602;2024-01-06T21:54:00;71.93;;;16.23;;
974;SDS011;6115;49.296;10.602;2024-01-06T21:59:01;74.17;;;16.97;;
974;SDS011;6115;49.296;10.602;2024-01-06T22:04:02;70.13;;;15.60;;
974;SDS011;6115;49.296;10.602;2024-01-06T22:09:03;71.43;;;16.57;;
974;SDS011;6115;49.296;10.602;2024-01-06T22:14:04;70.07;;;15.47;;
974;SDS011;6115;49.296;10.602;2024-01-06T22:19:05;75.57;;;20.50;;
974;SDS011;6115;49.296;10.602;2024-01-06T22:24:07;71.77;;;17.00;;
974;SDS011;6115;49.296;10.602;2024-01-06T22:29:08;72.60;;;17.30;;
974;SDS011;6115;49.296;10.602;2024-01-06T22:34:09;76.33;;;18.30;;
974;SDS011;6115;49.296;10.602;2024-01-06T22:39:12;75.03;;;17.50;;
974;SDS011;6115;49.296;10.602;2024-01-06T22:44:15;73.70;;;18.10;;
974;SDS011;6115;49.296;10.602;2024-01-06T22:49:16;76.67;;;18.20;;
974;SDS011;6115;49.296;10.602;2024-01-06T22:54:17;71.57;;;17.33;;
974;SDS011;6115;49.296;10.602;2024-01-06T22:59:18;76.03;;;17.50;;
974;SDS011;6115;49.296;10.602;2024-01-06T23:04:19;72.57;;;17.87;;
974;SDS011;6115;49.296;10.602;2024-01-06T23:09:19;73.00;;;18.90;;
974;SDS011;6115;49.296;10.602;2024-01-06T23:14:20;71.37;;;17.00;;
974;SDS011;6115;49.296;10.602;2024-01-06T23:19:20;71.57;;;16.50;;
974;SDS011;6115;49.296;10.602;2024-01-06T23:24:21;70.70;;;16.50;;
974;SDS011;6115;49.296;10.602;2024-01-06T23:29:21;70.20;;;16.80;;
974;SDS011;6115;49.296;10.602;2024-01-06T23:34:22;71.23;;;16.83;;
974;SDS011;6115;49.296;10.602;2024-01-06T23:39:28;71.70;;;17.13;;
974;SDS011;6115;49.296;10.602;2024-01-06T23:44:29;71.47;;;16.90;;
974;SDS011;6115;49.296;10.602;2024-01-06T23:49:29;71.13;;;16.57;;
974;SDS011;6115;49.296;10.602;2024-01-06T23:54:30;71.33;;;17.60;;
974;SDS011;6115;49.296;10.602;2024-01-06T23:59:30;70.37;;;15.70;;
